Portada
METAR-TAF:

METAR-TAF

Aeroports :

Lincolnton-Lincoln County Regional Airport

Lincolnton, Carolina del Nord, Estats Units d'Amèrica

latitud: 35-28-59N, longitud: 081-09-41W, altitud: 267 m

Observació

L'informe es va fer fa 9 hores i 21 minuts, a les 15:35 UTC
Vent calma
Temperatura 23°C
Humitat 100%
Pressió 1021 hPa
Visibilitat: 16.1 km
Cel cobert a una alçada de 600 ft

METAR: KIPJ 071535Z AUTO 00000KT 10SM OVC006 23/23 A3014 RMK AO2 T02280225

Hora: 20:56 (00:56 UTC)


TAF: manca

Observacions i pronòstics meteorològics de més de 4000 aeroports (METAR i TAF).

Les estacions disponibles són els punts grocs i vermells al mapa.

Posi el ratolí al punt desitjat per veure el nom de l'estació.

Feu clic per veure les observacions i els pronòstics meteorològics.

Per canviar el mapa: feu clic els botons verds amb una creu de color negre per apropar; al botó verd amb un guió per allunyar la imatge; o en les fletxes verdes per a mapes adjacents.


METAR-TAF: